10:53
Airports
Links
Donate
Help keep this website running!
PayPal
Bitcoin
METAR
KRNT 220953Z AUTO 01005KT 10SM FEW008 OVC055 00/M01 A3020 RMK AO2 SLP230 T00001011
Current Weather Conditions at KRNT
VFR 09:53:00 22-02-18
Automated station, no observer
Altimeter:30.20 hg
Temp:0.0°c 32°f
Dew point:-1.1°c 30°f
Wind:5 knots, 5.8 mph, 3 m/s, from 10°
Visibility:10.0 statute miles
5500(OVC) Overcast
800(FEW) A few
Past METAR reports
VFR 09:38:00 22-02-18
Automated station, no observer
Altimeter:30.20 hg
Temp:0.0°c 32°f
Dew point:-1.1°c 30°f
Wind:4 knots, 4.6 mph, 2 m/s, from 350°
Visibility:10.0 statute miles
5500(OVC) Overcast
900(SCT) Scattered
KRNT 220938Z AUTO 35004KT 10SM SCT009 OVC055 00/M01 A3020 RMK AO2 T00001011
VFR 08:53:00 22-02-18
Automated station, no observer
Altimeter:30.19 hg
Temp:0.0°c 32°f
Dew point:-1.1°c 30°f
Wind:3 knots, 3.5 mph, 2 m/s, from 10°
Visibility:10.0 statute miles
4700(OVC) Overcast
KRNT 220853Z AUTO 01003KT 10SM OVC047 00/M01 A3019 RMK AO2 SNE18 SLP229 P0000 60000 T00001011 53001
VFR 08:07:00 22-02-18
Automated station, no observer
Altimeter:30.19 hg
Temp:0.0°c 32°f
Dew point:-1.1°c 30°f
Wind:0 knots, 0 mph, 0 m/s,
Variable direction
Visibility:7.0 statute miles
4200(OVC) Overcast
900(SCT) Scattered
KRNT 220807Z AUTO 00000KT 7SM -SN SCT009 OVC042 00/M01 A3019 RMK AO2 P0000 T00001011
VFR 07:53:00 22-02-18
Automated station, no observer
Altimeter:30.19 hg
Temp:0.0°c 32°f
Dew point:-1.1°c 30°f
Wind:3 knots, 3.5 mph, 2 m/s, from 340°
Visibility:9.0 statute miles
4600(OVC) Overcast
KRNT 220753Z AUTO 34003KT 9SM -SN OVC046 00/M01 A3019 RMK AO2 SLP227 P0000 T00001011 400221039
MVFR 07:17:00 22-02-18
Automated station, no observer
Altimeter:30.19 hg
Temp:0.0°c 32°f
Dew point:-1.1°c 30°f
Wind:0 knots, 0 mph, 0 m/s,
Variable direction
Visibility:5.0 statute miles
3000(OVC) Overcast
KRNT 220717Z AUTO 00000KT 5SM -SN BR OVC030 00/M01 A3019 RMK AO2 P0000 T00001011
MVFR 06:53:00 22-02-18
Automated station, no observer
Altimeter:30.19 hg
Temp:0.0°c 32°f
Dew point:-1.1°c 30°f
Wind:3 knots, 3.5 mph, 2 m/s, from 100°
Visibility:3.0 statute miles
2400(OVC) Overcast
KRNT 220653Z AUTO 10003KT 3SM -SN BR OVC024 00/M01 A3019 RMK AO2 SLP226 P0000 T00001011
TAF
No TAF for KRNT
Forecast at KRNT
No Forecast Reports for KRNT